Aldrich, Minnesota
Current Conditions -  °F | °C
As of 2:33 AM on Sunday 23 Nov 2014 (Local Time) from KSAZ Reporting Station
Moderate Fog Moderate Fog  
Wind Chill: 30°   Ceiling: 200
Heat Index: 34°   Visibility: 0.25mi
Dew Point: 34°   Wind: 5mph
Humidity: 100%   Direction: 150°SSE
Pressure: 29.39"   Gusts: NA
Location:  46.38°N, 94.94°W
Report Text: KSAZ 230833Z AUTO 15004KT 1/4SM FG OVC002 01/01 A2939 RMK AO2
Loading
Personal Weather Stations






























Interactive Weather Map New forecast layout! Learn more

10-Day Weather Forecast

Advertisements
Track Severe Weather on mobile